Time;durP1;ratioP1;P1;durP2;ratioP2;P2;SDS_P1;SDS_P2;PMS_P1;PMS_P2;Temp;Humidity;BMP_temperature;BMP_pressure;BME280_temperature;BME280_humidity;BME280_pressure;Samples;Min_cycle;Max_cycle;Signal;HPM_P1;HPM_P2
2022/12/23 04:01:59;;;;;;;1.50;0.60;;;12.10;95.00;;;;;;5615848;23;21091;-73
2022/12/23 04:04:33;;;;;;;1.50;0.70;;;12.00;94.70;;;;;;5014292;28;20468;-73
2022/12/23 04:07:05;;;;;;;2.33;0.70;;;12.10;95.10;;;;;;5014363;28;20432;-73
2022/12/23 04:09:33;;;;;;;1.50;0.60;;;12.10;94.60;;;;;;5014309;28;20436;-73
2022/12/23 04:11:59;;;;;;;1.70;0.73;;;12.30;94.60;;;;;;5013783;28;21055;-73
2022/12/23 04:14:29;;;;;;;1.50;0.70;;;12.20;94.10;;;;;;5014672;28;20445;-72
2022/12/23 04:16:58;;;;;;;1.50;0.60;;;12.10;94.40;;;;;;5014061;28;20448;-73
2022/12/23 04:19:24;;;;;;;1.50;0.60;;;12.20;94.80;;;;;;5014103;28;20452;-73
2022/12/23 04:21:51;;;;;;;1.50;0.70;;;12.20;94.40;;;;;;5013905;28;20522;-73
2022/12/23 04:24:18;;;;;;;1.50;0.60;;;12.30;94.50;;;;;;5013961;28;20830;-72
2022/12/23 04:26:45;;;;;;;1.43;0.70;;;12.40;94.00;;;;;;5013654;28;20870;-73
2022/12/23 04:29:11;;;;;;;1.50;0.70;;;12.50;93.70;;;;;;5013545;28;20880;-73
2022/12/23 04:31:38;;;;;;;1.60;0.60;;;12.60;93.40;;;;;;5013511;28;20989;-73
2022/12/23 04:34:06;;;;;;;2.37;0.73;;;12.50;93.40;;;;;;5013832;28;20449;-73
2022/12/23 04:36:33;;;;;;;1.40;0.60;;;12.50;93.40;;;;;;5013736;28;20448;-73
2022/12/23 04:38:59;;;;;;;1.50;0.60;;;12.50;93.50;;;;;;5013775;28;20527;-72
2022/12/23 04:41:26;;;;;;;2.87;0.60;;;12.60;93.60;;;;;;5013620;28;20468;-73
2022/12/23 04:43:53;;;;;;;1.50;0.60;;;12.60;93.30;;;;;;5013649;28;20534;-73
2022/12/23 04:46:19;;;;;;;1.70;0.70;;;12.70;92.80;;;;;;5013623;28;20441;-73
2022/12/23 04:48:46;;;;;;;1.60;0.60;;;12.80;92.50;;;;;;5013756;28;20452;-73
2022/12/23 04:51:14;;;;;;;1.47;0.60;;;12.80;92.10;;;;;;5013535;28;20468;-73
2022/12/23 04:53:41;;;;;;;1.60;0.60;;;12.80;92.00;;;;;;5013010;28;20503;-73
2022/12/23 04:56:07;;;;;;;1.50;0.60;;;12.80;92.20;;;;;;5013766;28;20475;-73
2022/12/23 04:58:34;;;;;;;1.50;0.60;;;12.80;92.00;;;;;;5013643;28;20864;-73
2022/12/23 05:01:02;;;;;;;1.50;0.70;;;12.80;92.10;;;;;;5013056;28;20833;-73
2022/12/23 05:03:29;;;;;;;1.50;0.70;;;12.70;92.00;;;;;;5013199;28;20563;-72
2022/12/23 05:05:55;;;;;;;1.50;0.67;;;12.80;92.20;;;;;;5013297;28;20478;-73
2022/12/23 05:08:23;;;;;;;2.23;0.80;;;12.80;92.30;;;;;;5013429;28;20443;-73
2022/12/23 05:10:50;;;;;;;1.60;0.70;;;12.90;92.10;;;;;;5013311;28;20468;-73
2022/12/23 05:13:17;;;;;;;1.60;0.67;;;12.90;91.80;;;;;;5013224;28;20949;-73
2022/12/23 05:15:44;;;;;;;1.47;0.60;;;13.00;91.50;;;;;;5013070;28;20871;-73
2022/12/23 05:18:10;;;;;;;1.90;0.70;;;12.90;91.30;;;;;;5013426;28;20453;-73
2022/12/23 05:20:37;;;;;;;1.60;0.73;;;12.80;91.60;;;;;;5013306;28;20451;-73
2022/12/23 05:23:04;;;;;;;1.40;0.60;;;12.80;92.00;;;;;;5013230;28;20487;-73
2022/12/23 05:25:32;;;;;;;1.50;0.60;;;12.70;91.80;;;;;;5013010;28;20453;-73
2022/12/23 05:27:59;;;;;;;1.50;0.70;;;12.80;91.90;;;;;;5013221;28;20449;-73
2022/12/23 05:30:26;;;;;;;1.90;0.80;;;12.80;92.00;;;;;;5013155;28;20498;-73
2022/12/23 05:32:53;;;;;;;2.93;0.63;;;12.80;91.70;;;;;;5013242;28;20453;-73
2022/12/23 05:35:20;;;;;;;2.00;0.70;;;12.70;92.10;;;;;;5012925;28;21029;-73
2022/12/23 05:37:46;;;;;;;1.50;0.60;;;12.60;92.10;;;;;;5013183;28;20483;-73
2022/12/23 05:40:13;;;;;;;1.47;0.60;;;12.60;92.20;;;;;;5013172;28;20850;-73
2022/12/23 05:42:41;;;;;;;1.40;0.60;;;12.70;92.50;;;;;;5012740;28;21056;-73
2022/12/23 05:45:09;;;;;;;1.50;0.70;;;12.70;92.00;;;;;;5013073;28;20542;-73
2022/12/23 05:47:36;;;;;;;1.50;0.60;;;12.80;92.10;;;;;;5013704;28;20999;-73
2022/12/23 05:50:04;;;;;;;1.50;0.60;;;12.70;91.80;;;;;;5014044;28;20444;-73
2022/12/23 05:52:30;;;;;;;1.53;0.70;;;12.70;91.90;;;;;;5013798;28;20472;-73
2022/12/23 05:54:57;;;;;;;1.70;0.70;;;12.70;92.20;;;;;;5013083;28;20448;-73
2022/12/23 05:57:24;;;;;;;1.70;0.87;;;12.80;91.90;;;;;;5013095;28;20857;-72
2022/12/23 05:59:52;;;;;;;1.67;0.90;;;12.90;91.60;;;;;;5013040;28;20448;-73
2022/12/23 06:02:20;;;;;;;1.70;0.70;;;13.00;91.40;;;;;;5012601;28;21068;-72
2022/12/23 06:04:47;;;;;;;1.70;0.80;;;13.00;91.00;;;;;;5018134;28;20480;-74
2022/12/23 06:07:14;;;;;;;1.60;0.70;;;13.10;90.80;;;;;;5041831;28;20463;-73
2022/12/23 06:09:40;;;;;;;1.60;0.70;;;13.10;90.70;;;;;;5026006;28;20483;-73
2022/12/23 06:12:07;;;;;;;1.50;0.60;;;13.10;90.50;;;;;;5016368;28;20463;-73
2022/12/23 06:14:34;;;;;;;1.60;0.70;;;13.10;90.60;;;;;;5016470;28;20445;-74
2022/12/23 06:17:02;;;;;;;1.60;0.70;;;13.10;90.60;;;;;;5016260;28;20448;-73
2022/12/23 06:19:28;;;;;;;1.60;0.70;;;13.20;90.60;;;;;;5016197;28;20444;-73
2022/12/23 06:21:55;;;;;;;1.57;0.80;;;13.20;90.50;;;;;;5015879;28;20842;-73
2022/12/23 06:24:22;;;;;;;1.83;0.80;;;13.20;90.50;;;;;;5016043;28;20845;-73
2022/12/23 06:26:49;;;;;;;2.87;0.80;;;13.20;90.00;;;;;;5016227;28;20452;-73
2022/12/23 06:29:15;;;;;;;1.70;0.63;;;13.30;89.80;;;;;;5016085;28;20448;-73
2022/12/23 06:31:42;;;;;;;1.50;0.70;;;13.30;89.70;;;;;;5015943;28;20876;-73
2022/12/23 06:34:10;;;;;;;1.97;0.80;;;13.30;89.40;;;;;;5016069;28;20476;-73
2022/12/23 06:36:37;;;;;;;1.77;0.70;;;13.20;89.50;;;;;;5015952;28;20499;-73
2022/12/23 06:39:03;;;;;;;1.60;0.70;;;13.20;89.40;;;;;;5015908;28;20448;-73
2022/12/23 06:41:30;;;;;;;2.90;0.90;;;13.20;89.40;;;;;;5015796;28;20518;-74
2022/12/23 06:43:57;;;;;;;1.63;0.70;;;13.00;89.70;;;;;;5015734;28;20537;-74
2022/12/23 06:46:24;;;;;;;1.53;0.70;;;13.00;90.00;;;;;;5015638;28;20448;-74
2022/12/23 06:48:50;;;;;;;1.70;0.90;;;13.10;89.70;;;;;;5015755;28;20456;-74
2022/12/23 06:51:18;;;;;;;1.67;1.00;;;13.10;89.60;;;;;;5015705;28;20480;-73
2022/12/23 06:53:45;;;;;;;1.90;0.70;;;13.10;89.40;;;;;;5015608;28;20452;-74
2022/12/23 06:56:12;;;;;;;1.50;0.70;;;13.20;89.10;;;;;;5015461;28;20444;-72
2022/12/23 06:58:38;;;;;;;1.77;0.80;;;13.20;88.60;;;;;;5015580;28;20499;-73
2022/12/23 07:01:05;;;;;;;1.80;0.80;;;13.10;88.70;;;;;;5015013;28;21000;-73
2022/12/23 07:03:32;;;;;;;1.70;0.80;;;13.20;88.40;;;;;;5015103;28;20483;-73
2022/12/23 07:05:58;;;;;;;1.50;0.60;;;13.20;88.30;;;;;;5015284;28;20510;-73
2022/12/23 07:08:26;;;;;;;1.60;0.80;;;13.20;88.20;;;;;;5015377;28;20452;-73
2022/12/23 07:10:58;;;;;;;1.90;1.10;;;13.20;88.10;;;;;;5015526;28;20476;-74
2022/12/23 07:13:24;;;;;;;1.70;0.80;;;13.10;87.80;;;;;;5015526;28;20499;-74
2022/12/23 07:15:51;;;;;;;1.60;0.70;;;13.10;87.50;;;;;;5014590;28;20440;-75
2022/12/23 07:18:18;;;;;;;1.90;0.80;;;13.00;87.60;;;;;;5015344;28;20444;-75
2022/12/23 07:20:44;;;;;;;1.83;0.80;;;13.00;87.80;;;;;;5015177;28;20468;-75
2022/12/23 07:23:11;;;;;;;2.13;0.90;;;13.00;87.90;;;;;;5015225;28;20506;-75
2022/12/23 07:25:39;;;;;;;1.63;0.80;;;12.90;87.70;;;;;;5015007;28;20484;-75
2022/12/23 07:28:06;;;;;;;1.70;1.03;;;12.90;87.40;;;;;;5015527;28;20452;-75
2022/12/23 07:30:32;;;;;;;2.47;1.23;;;12.90;87.30;;;;;;5015126;28;20444;-75
2022/12/23 07:32:59;;;;;;;2.30;1.80;;;12.90;87.50;;;;;;5015038;28;20456;-75
2022/12/23 07:35:27;;;;;;;2.70;2.30;;;12.80;87.50;;;;;;5014858;28;20440;-74
2022/12/23 07:37:55;;;;;;;2.80;2.50;;;12.80;87.80;;;;;;5014568;28;20452;-73
2022/12/23 07:40:22;;;;;;;2.90;2.40;;;12.80;88.20;;;;;;5014636;28;20503;-72
2022/12/23 07:42:53;;;;;;;1.97;1.57;;;12.80;88.50;;;;;;5014931;28;20547;-73
2022/12/23 07:45:20;;;;;;;2.40;1.90;;;12.80;88.70;;;;;;5014691;28;20465;-74
2022/12/23 07:47:46;;;;;;;4.70;2.37;;;12.80;89.00;;;;;;5015564;28;20505;-73
2022/12/23 07:50:13;;;;;;;1.97;1.17;;;12.80;88.90;;;;;;5014677;28;20456;-71
2022/12/23 07:52:40;;;;;;;1.90;1.30;;;12.80;89.20;;;;;;5014385;28;20472;-73
2022/12/23 07:55:07;;;;;;;2.20;1.20;;;12.80;89.60;;;;;;5014497;28;20456;-73
2022/12/23 07:57:36;;;;;;;2.67;1.47;;;12.90;89.70;;;;;;5014616;28;20448;-72
2022/12/23 08:00:06;;;;;;;1.70;1.00;;;12.90;89.60;;;;;;5014497;28;20488;-73
2022/12/23 08:02:33;;;;;;;1.90;1.00;;;12.90;89.70;;;;;;5014310;28;21049;-74
2022/12/23 08:05:00;;;;;;;1.93;1.00;;;12.90;89.80;;;;;;5013958;28;21035;-72
2022/12/23 08:07:26;;;;;;;1.70;0.93;;;12.90;90.00;;;;;;5013969;28;20445;-74
2022/12/23 08:09:53;;;;;;;1.60;0.70;;;13.00;90.10;;;;;;5014306;28;20456;-73
2022/12/23 08:12:20;;;;;;;2.13;1.33;;;13.00;89.80;;;;;;5014147;28;20523;-73
2022/12/23 08:14:47;;;;;;;2.30;1.03;;;13.10;89.80;;;;;;5014191;28;20859;-73
2022/12/23 08:17:15;;;;;;;1.90;1.10;;;13.20;89.50;;;;;;5015003;28;20467;-73
2022/12/23 08:19:42;;;;;;;2.10;1.13;;;13.20;89.10;;;;;;5015172;28;20518;-73
2022/12/23 08:22:09;;;;;;;1.60;0.80;;;13.20;89.10;;;;;;5015102;28;20476;-73
2022/12/23 08:24:35;;;;;;;1.57;0.80;;;13.20;88.90;;;;;;5015280;28;20480;-71
2022/12/23 08:27:02;;;;;;;1.77;0.90;;;13.20;88.70;;;;;;5014174;28;20452;-73
2022/12/23 08:29:28;;;;;;;1.70;0.80;;;13.20;89.00;;;;;;5014910;28;20448;-73
2022/12/23 08:31:55;;;;;;;1.70;0.80;;;13.30;88.90;;;;;;5014734;28;20472;-73
2022/12/23 08:34:23;;;;;;;1.50;0.80;;;13.30;88.90;;;;;;5015732;28;20476;-74
2022/12/23 08:36:50;;;;;;;1.50;0.70;;;13.30;89.10;;;;;;5015581;28;20459;-73
2022/12/23 08:39:17;;;;;;;1.80;0.90;;;13.40;89.00;;;;;;5016222;28;20495;-73
2022/12/23 08:41:46;;;;;;;1.60;0.83;;;13.40;88.80;;;;;;5014708;28;20496;-72
2022/12/23 08:44:13;;;;;;;2.17;0.70;;;13.40;88.90;;;;;;5013903;28;20444;-73
2022/12/23 08:46:41;;;;;;;2.53;0.90;;;13.40;89.30;;;;;;5014274;28;20452;-72
2022/12/23 08:49:08;;;;;;;1.60;0.80;;;13.40;89.50;;;;;;5014152;28;21004;-73
2022/12/23 08:51:37;;;;;;;1.60;0.80;;;13.50;89.20;;;;;;5014095;28;20930;-72
2022/12/23 08:54:04;;;;;;;1.60;0.80;;;13.50;88.90;;;;;;5014063;28;20448;-73
2022/12/23 08:56:33;;;;;;;2.53;0.90;;;13.50;88.80;;;;;;5014169;28;20817;-73
2022/12/23 08:59:00;;;;;;;2.07;1.00;;;13.50;88.80;;;;;;5014264;28;20872;-73
2022/12/23 09:01:29;;;;;;;1.90;1.00;;;13.60;88.80;;;;;;5013755;28;20530;-73
2022/12/23 09:03:56;;;;;;;2.33;1.13;;;13.60;88.90;;;;;;5013771;28;20498;-73
2022/12/23 09:06:25;;;;;;;3.47;1.10;;;13.60;88.70;;;;;;5014020;28;20495;-74
2022/12/23 09:08:54;;;;;;;1.70;0.93;;;13.50;89.20;;;;;;5014063;28;20934;-73
2022/12/23 09:11:22;;;;;;;2.70;1.17;;;13.40;89.60;;;;;;5013294;28;20472;-74
2022/12/23 09:13:49;;;;;;;2.00;1.13;;;13.40;89.70;;;;;;5013930;28;20535;-73
2022/12/23 09:16:16;;;;;;;1.70;1.00;;;13.40;90.00;;;;;;5014017;28;20495;-73
2022/12/23 09:18:43;;;;;;;1.70;0.90;;;13.40;90.30;;;;;;5014075;28;20448;-72
2022/12/23 09:21:13;;;;;;;2.50;1.03;;;13.30;90.20;;;;;;5014876;28;20892;-74
2022/12/23 09:23:40;;;;;;;1.77;1.00;;;13.30;90.60;;;;;;5015197;28;20455;-72
2022/12/23 09:26:09;;;;;;;2.77;1.73;;;13.20;91.00;;;;;;5015878;28;20853;-74
2022/12/23 09:28:36;;;;;;;2.10;1.30;;;13.30;90.60;;;;;;5021815;28;21015;-73
2022/12/23 09:31:07;;;;;;;1.80;1.00;;;13.20;91.10;;;;;;5025517;28;20965;-74
2022/12/23 09:33:34;;;;;;;1.90;1.17;;;13.00;91.20;;;;;;5023763;28;20499;-72
2022/12/23 09:36:01;;;;;;;1.83;1.10;;;13.00;91.60;;;;;;5019539;28;20498;-73
2022/12/23 09:38:28;;;;;;;1.80;1.03;;;13.10;92.20;;;;;;5018100;28;20463;-74
2022/12/23 09:41:02;;;;;;;1.80;1.07;;;13.20;91.60;;;;;;5018348;28;20495;-72
2022/12/23 09:43:39;;;;;;;1.80;1.10;;;13.20;91.80;;;;;;5017030;28;20436;-71
2022/12/23 09:46:15;;;;;;;2.00;1.20;;;13.30;91.50;;;;;;5016580;28;20902;-72
2022/12/23 09:48:47;;;;;;;1.70;0.90;;;13.20;91.30;;;;;;5016906;28;20437;-72
2022/12/23 09:51:15;;;;;;;2.00;0.90;;;13.20;91.30;;;;;;5016805;28;20475;-72
2022/12/23 09:53:52;;;;;;;2.57;0.80;;;13.00;91.80;;;;;;5016679;28;20448;-72
2022/12/23 09:56:27;;;;;;;1.90;1.00;;;12.80;93.00;;;;;;5016791;28;20429;-72
2022/12/23 09:59:04;;;;;;;1.57;0.80;;;12.70;93.50;;;;;;5016746;28;20868;-71
2022/12/23 10:01:35;;;;;;;1.80;0.80;;;12.60;93.80;;;;;;5016313;28;20514;-72
2022/12/23 10:04:32;;;;;;;2.00;1.07;;;12.60;94.00;;;;;;5016799;28;20444;-73
2022/12/23 10:07:14;;;;;;;1.60;0.90;;;12.60;94.20;;;;;;5016809;28;20817;-72
2022/12/23 10:09:45;;;;;;;2.13;0.93;;;12.70;94.10;;;;;;5016379;28;20850;-72
2022/12/23 10:12:19;;;;;;;1.90;1.17;;;12.60;94.10;;;;;;5016508;28;20464;-73
2022/12/23 10:14:50;;;;;;;1.70;1.00;;;12.60;94.50;;;;;;5017147;28;20493;-73
2022/12/23 10:17:26;;;;;;;2.20;1.10;;;12.60;94.40;;;;;;5016353;28;20483;-73
2022/12/23 10:19:56;;;;;;;1.70;0.80;;;12.70;94.70;;;;;;5016615;28;20413;-72
2022/12/23 10:22:26;;;;;;;1.60;0.80;;;12.80;94.00;;;;;;5016393;28;20511;-72
2022/12/23 10:24:55;;;;;;;2.20;1.23;;;12.80;94.10;;;;;;5016255;28;20499;-73
2022/12/23 10:27:29;;;;;;;1.73;0.90;;;12.90;93.90;;;;;;5016379;28;20449;-73
2022/12/23 10:29:59;;;;;;;1.97;0.97;;;13.00;93.70;;;;;;5016177;28;20491;-71
2022/12/23 10:32:37;;;;;;;1.70;0.83;;;13.00;93.50;;;;;;5015941;28;20534;-74
2022/12/23 10:35:11;;;;;;;1.60;0.77;;;13.10;93.50;;;;;;5016051;28;20850;-73
2022/12/23 10:37:45;;;;;;;1.87;0.80;;;13.10;93.40;;;;;;5015738;28;20479;-72
2022/12/23 10:40:17;;;;;;;3.03;1.00;;;13.10;93.10;;;;;;5015906;28;20487;-72
2022/12/23 10:42:51;;;;;;;1.50;0.70;;;13.10;93.00;;;;;;5015800;28;20866;-72
2022/12/23 10:45:44;;;;;;;2.10;0.87;;;13.00;93.10;;;;;;5015537;28;20889;-73
2022/12/23 10:48:27;;;;;;;2.17;0.90;;;13.20;93.50;;;;;;5015788;28;20487;-73
2022/12/23 10:51:01;;;;;;;1.57;0.73;;;13.10;92.80;;;;;;5014525;28;20468;-73
2022/12/23 10:53:33;;;;;;;1.70;0.70;;;12.90;93.70;;;;;;5015802;28;20441;-73
2022/12/23 10:56:00;;;;;;;2.00;1.17;;;12.90;94.10;;;;;;5015396;28;20431;-73
2022/12/23 10:58:27;;;;;;;1.83;1.07;;;13.00;94.30;;;;;;5015424;28;20444;-73
2022/12/23 11:00:58;;;;;;;2.17;1.00;;;13.00;94.30;;;;;;5015205;28;20484;-72
2022/12/23 11:03:28;;;;;;;1.77;0.90;;;12.90;94.30;;;;;;5015521;28;20483;-72
2022/12/23 11:05:56;;;;;;;2.17;1.40;;;12.90;94.50;;;;;;5016344;28;20471;-73
2022/12/23 11:08:25;;;;;;;1.90;1.23;;;12.90;94.40;;;;;;5015851;28;20453;-72
2022/12/23 11:10:52;;;;;;;1.70;0.90;;;12.90;94.60;;;;;;5014999;28;20518;-72
2022/12/23 11:13:33;;;;;;;2.00;0.90;;;12.90;94.90;;;;;;5015095;28;20440;-73
2022/12/23 11:16:14;;;;;;;1.80;0.90;;;13.10;94.70;;;;;;5015111;28;20511;-72
2022/12/23 11:18:53;;;;;;;2.37;0.90;;;13.20;94.20;;;;;;5014847;28;20978;-72
2022/12/23 11:21:20;;;;;;;1.57;0.80;;;13.10;93.90;;;;;;5015009;28;20464;-72
2022/12/23 11:23:47;;;;;;;1.73;1.03;;;13.10;94.20;;;;;;5015121;28;20445;-72
2022/12/23 11:26:19;;;;;;;1.60;0.80;;;13.20;94.40;;;;;;5014627;28;20891;-72
2022/12/23 11:28:49;;;;;;;1.63;0.80;;;13.20;94.30;;;;;;5014678;28;20787;-72
2022/12/23 11:31:25;;;;;;;1.70;0.80;;;13.00;94.40;;;;;;5015377;28;20475;-72
2022/12/23 11:33:58;;;;;;;1.97;1.00;;;13.10;94.70;;;;;;5014825;28;20432;-72
2022/12/23 11:36:27;;;;;;;1.50;0.70;;;13.10;94.70;;;;;;5014887;28;20459;-72
2022/12/23 11:39:02;;;;;;;1.60;0.93;;;13.20;94.80;;;;;;5014788;28;20503;-71
2022/12/23 11:41:36;;;;;;;2.30;1.10;;;13.30;94.50;;;;;;5014626;28;20472;-73
2022/12/23 11:44:07;;;;;;;3.00;1.40;;;13.30;94.20;;;;;;5014828;28;20440;-72
2022/12/23 11:46:35;;;;;;;1.90;0.90;;;13.30;94.20;;;;;;5014672;28;20474;-72
2022/12/23 11:49:16;;;;;;;1.80;1.00;;;13.10;94.70;;;;;;5014707;28;20866;-72
2022/12/23 11:51:43;;;;;;;2.93;1.03;;;13.20;95.20;;;;;;5014489;28;20471;-72
2022/12/23 11:54:15;;;;;;;1.87;0.90;;;13.20;95.20;;;;;;5014578;28;20452;-73
2022/12/23 11:56:42;;;;;;;1.70;0.90;;;13.40;94.90;;;;;;5014552;28;20429;-73
2022/12/23 11:59:26;;;;;;;2.33;1.00;;;13.30;94.50;;;;;;5014868;28;20515;-72
2022/12/23 12:01:56;;;;;;;2.17;0.83;;;13.40;94.80;;;;;;5013932;28;20480;-72
2022/12/23 12:04:26;;;;;;;1.70;0.80;;;13.40;94.50;;;;;;5014403;28;20491;-73
2022/12/23 12:06:54;;;;;;;2.20;0.70;;;13.40;94.70;;;;;;5014159;28;20480;-72
2022/12/23 12:09:22;;;;;;;1.70;0.80;;;13.30;94.50;;;;;;5014430;28;20444;-73
2022/12/23 12:11:51;;;;;;;1.80;0.90;;;13.40;94.80;;;;;;5014139;28;20500;-72
2022/12/23 12:14:22;;;;;;;1.70;0.80;;;13.50;94.90;;;;;;5014238;28;20452;-73
2022/12/23 12:16:57;;;;;;;2.10;0.80;;;13.40;94.10;;;;;;5013782;28;20463;-73
2022/12/23 12:19:27;;;;;;;1.90;0.80;;;13.40;94.50;;;;;;5014197;28;20467;-72
2022/12/23 12:21:59;;;;;;;2.20;0.97;;;13.30;94.50;;;;;;5013981;28;20519;-72
2022/12/23 12:24:29;;;;;;;1.70;0.90;;;13.20;94.70;;;;;;5014093;28;20472;-72
2022/12/23 12:27:01;;;;;;;2.00;1.00;;;13.20;94.70;;;;;;5024241;28;20542;-72
2022/12/23 12:29:34;;;;;;;1.60;0.80;;;13.20;95.00;;;;;;5021920;28;20444;-71
2022/12/23 12:32:03;;;;;;;1.90;1.00;;;13.10;95.00;;;;;;5021828;28;20473;-72
2022/12/23 12:34:37;;;;;;;2.10;1.17;;;13.00;95.30;;;;;;5022180;28;20451;-71
2022/12/23 12:37:12;;;;;;;1.73;0.87;;;12.90;95.60;;;;;;5022039;28;20432;-72
2022/12/23 12:39:43;;;;;;;1.90;1.00;;;12.90;95.80;;;;;;5024144;28;20834;-72
2022/12/23 12:42:14;;;;;;;1.80;0.97;;;12.90;95.80;;;;;;5024726;28;20469;-73
2022/12/23 12:44:52;;;;;;;2.00;1.00;;;13.00;95.80;;;;;;5024322;28;20435;-73
2022/12/23 12:47:26;;;;;;;2.10;1.00;;;12.80;95.80;;;;;;5023941;28;20468;-72
2022/12/23 12:50:00;;;;;;;2.27;0.80;;;12.90;95.80;;;;;;5023843;28;20432;-72
2022/12/23 12:52:29;;;;;;;1.90;1.13;;;12.80;95.80;;;;;;5024192;28;20464;-73
2022/12/23 12:55:00;;;;;;;1.60;0.80;;;12.80;95.80;;;;;;5025082;28;20444;-73
2022/12/23 12:57:29;;;;;;;2.33;1.20;;;12.80;95.80;;;;;;5025095;28;20433;-74
2022/12/23 12:59:59;;;;;;;3.40;1.13;;;12.90;95.80;;;;;;5024322;28;20472;-72
2022/12/23 13:02:43;;;;;;;1.90;0.90;;;12.90;95.80;;;;;;5018879;28;20483;-73
2022/12/23 13:05:26;;;;;;;2.47;1.00;;;12.90;95.80;;;;;;5024904;28;20429;-73
2022/12/23 13:08:06;;;;;;;1.70;0.87;;;13.00;95.80;;;;;;5027206;28;20425;-73
2022/12/23 13:10:39;;;;;;;1.70;0.80;;;13.00;95.30;;;;;;5035817;28;20921;-72
2022/12/23 13:13:20;;;;;;;1.90;0.90;;;13.10;95.40;;;;;;5034567;28;20417;-73
2022/12/23 13:15:54;;;;;;;1.77;0.97;;;13.10;95.20;;;;;;5038986;28;20437;-73
2022/12/23 13:18:34;;;;;;;1.80;0.90;;;13.20;94.90;;;;;;5037710;28;20434;-72
2022/12/23 13:21:07;;;;;;;1.70;0.77;;;13.20;94.90;;;;;;5035950;28;20497;-72
2022/12/23 13:23:40;;;;;;;2.00;1.00;;;13.30;94.70;;;;;;5035186;28;20436;-72
2022/12/23 13:26:17;;;;;;;1.83;0.83;;;13.40;94.10;;;;;;5033853;28;20476;-74
2022/12/23 13:28:55;;;;;;;1.80;0.80;;;13.40;93.80;;;;;;5033924;28;20494;-73
2022/12/23 13:31:33;;;;;;;1.53;0.77;;;13.40;93.70;;;;;;5029109;28;20467;-73
2022/12/23 13:34:09;;;;;;;1.83;0.90;;;13.30;93.90;;;;;;5028799;28;20433;-73
2022/12/23 13:36:44;;;;;;;1.60;0.83;;;13.30;94.10;;;;;;5020244;28;20458;-73
2022/12/23 13:39:26;;;;;;;1.70;0.80;;;13.40;93.80;;;;;;5024164;28;20455;-72
2022/12/23 13:41:56;;;;;;;1.90;0.90;;;13.40;93.90;;;;;;5026907;28;20989;-73
2022/12/23 13:44:23;;;;;;;2.17;1.30;;;13.40;93.70;;;;;;5026742;28;20459;-72
2022/12/23 13:46:57;;;;;;;1.90;1.00;;;13.40;93.60;;;;;;5024644;28;21083;-73
2022/12/23 13:49:36;;;;;;;1.70;0.90;;;13.40;93.60;;;;;;5026740;28;20432;-72
2022/12/23 13:52:10;;;;;;;1.90;1.00;;;13.40;93.70;;;;;;5027246;28;20479;-72
2022/12/23 13:54:46;;;;;;;2.63;1.50;;;13.40;93.80;;;;;;5026732;28;20424;-72
2022/12/23 13:57:23;;;;;;;1.77;0.90;;;13.30;94.00;;;;;;5025597;28;20440;-72
2022/12/23 13:59:59;;;;;;;1.80;1.00;;;13.40;94.00;;;;;;5026190;28;20421;-72
2022/12/23 14:02:42;;;;;;;1.77;0.90;;;13.20;94.20;;;;;;5025443;28;20486;-73
2022/12/23 14:05:33;;;;;;;1.97;1.07;;;13.20;94.50;;;;;;5025592;28;20441;-71
2022/12/23 14:08:02;;;;;;;2.00;1.10;;;13.10;95.00;;;;;;5026140;28;21063;-72
2022/12/23 14:10:29;;;;;;;1.80;1.00;;;13.20;95.20;;;;;;5025227;28;20448;-72
2022/12/23 14:13:03;;;;;;;1.80;0.90;;;13.10;95.10;;;;;;5021423;28;20452;-72
2022/12/23 14:15:47;;;;;;;1.53;0.80;;;13.20;95.50;;;;;;5025616;28;20433;-71
2022/12/23 14:18:36;;;;;;;1.73;0.90;;;13.10;95.30;;;;;;5026452;28;20439;-73
2022/12/23 14:21:12;;;;;;;2.10;0.93;;;13.10;95.70;;;;;;5025661;28;20453;-71
2022/12/23 14:23:54;;;;;;;1.83;0.90;;;13.10;95.60;;;;;;5024249;28;20471;-71
2022/12/23 14:26:42;;;;;;;2.43;1.23;;;13.00;95.80;;;;;;5025331;28;20473;-72
2022/12/23 14:29:32;;;;;;;1.87;1.00;;;13.00;95.80;;;;;;5024752;28;20425;-69
2022/12/23 14:31:59;;;;;;;1.90;1.10;;;13.00;95.80;;;;;;5025506;28;20474;-71
2022/12/23 14:34:31;;;;;;;3.50;1.00;;;12.90;95.80;;;;;;5025847;28;20448;-72
2022/12/23 14:37:35;;;;;;;1.73;0.90;;;12.90;95.80;;;;;;5025580;28;20452;-73
2022/12/23 14:40:35;;;;;;;1.80;0.90;;;12.90;95.80;;;;;;5025386;28;20431;-72
2022/12/23 14:43:26;;;;;;;1.70;0.80;;;12.90;95.80;;;;;;5024396;28;20452;-71
2022/12/23 14:45:53;;;;;;;2.13;0.90;;;12.90;95.80;;;;;;5024908;28;20516;-72
2022/12/23 14:48:58;;;;;;;1.70;0.90;;;12.90;95.80;;;;;;5025095;28;20445;-72
2022/12/23 14:51:32;;;;;;;1.60;0.87;;;12.90;95.80;;;;;;5025117;28;20464;-72
2022/12/23 14:54:15;;;;;;;3.40;1.00;;;12.90;95.80;;;;;;5025230;28;20409;-72
2022/12/23 14:56:57;;;;;;;2.00;1.03;;;12.90;95.80;;;;;;5023096;28;20840;-72
2022/12/23 14:59:33;;;;;;;1.90;0.93;;;13.00;95.80;;;;;;5015496;28;20516;-71
2022/12/23 15:02:02;;;;;;;1.83;1.00;;;12.90;95.80;;;;;;5014954;28;20480;-72
2022/12/23 15:04:32;;;;;;;2.00;1.10;;;12.90;95.80;;;;;;5021128;28;20511;-72
2022/12/23 15:07:03;;;;;;;3.27;1.80;;;13.00;95.80;;;;;;5024590;28;20555;-72
2022/12/23 15:09:34;;;;;;;2.50;0.93;;;13.00;95.80;;;;;;5025643;28;20446;-73
2022/12/23 15:12:11;;;;;;;1.83;0.90;;;13.00;95.80;;;;;;5025311;28;20477;-73
2022/12/23 15:14:43;;;;;;;2.00;0.90;;;13.10;95.80;;;;;;5025057;28;20936;-73
2022/12/23 15:17:20;;;;;;;2.10;0.87;;;13.10;95.80;;;;;;5025523;28;20436;-74
2022/12/23 15:19:47;;;;;;;2.10;1.10;;;13.20;95.80;;;;;;5026813;28;20448;-74
2022/12/23 15:22:15;;;;;;;1.73;0.93;;;13.20;95.80;;;;;;5026675;28;20537;-73
2022/12/23 15:24:44;;;;;;;1.87;0.90;;;13.10;95.80;;;;;;5026363;28;20828;-74
2022/12/23 15:27:16;;;;;;;2.63;1.00;;;13.00;95.80;;;;;;5026580;28;20484;-72
2022/12/23 15:29:47;;;;;;;1.90;1.17;;;13.10;95.80;;;;;;5027181;28;20440;-74
2022/12/23 15:32:14;;;;;;;1.90;1.03;;;13.00;95.80;;;;;;5026923;28;20468;-74
2022/12/23 15:34:41;;;;;;;2.27;0.87;;;13.10;95.80;;;;;;5025442;28;20445;-74
2022/12/23 15:37:11;;;;;;;1.87;1.00;;;13.10;95.80;;;;;;5025013;28;20445;-73
2022/12/23 15:39:42;;;;;;;1.83;1.20;;;13.10;95.80;;;;;;5026541;28;20788;-73
2022/12/23 15:42:21;;;;;;;2.00;1.23;;;13.20;95.80;;;;;;5020141;28;20504;-73
2022/12/23 15:44:48;;;;;;;1.83;1.03;;;13.20;95.80;;;;;;5014643;28;20515;-73
2022/12/23 15:47:27;;;;;;;2.10;1.23;;;13.20;95.80;;;;;;5014485;28;20484;-73
2022/12/23 15:49:55;;;;;;;1.90;1.13;;;13.30;95.80;;;;;;5014233;28;20868;-74
2022/12/23 15:52:22;;;;;;;2.83;0.90;;;13.30;95.80;;;;;;5014398;28;20543;-74
2022/12/23 15:54:55;;;;;;;1.70;0.90;;;13.30;95.80;;;;;;5014158;28;20939;-71
2022/12/23 15:57:27;;;;;;;1.80;1.00;;;13.30;95.80;;;;;;5014078;28;20805;-72
2022/12/23 15:59:55;;;;;;;1.90;1.10;;;13.40;95.80;;;;;;5014258;28;20439;-72
2022/12/23 16:02:27;;;;;;;2.13;1.00;;;13.30;95.80;;;;;;5013860;28;20476;-71
2022/12/23 16:04:56;;;;;;;1.60;0.73;;;13.30;95.80;;;;;;5014364;28;20437;-74
2022/12/23 16:07:27;;;;;;;1.93;1.10;;;13.30;95.80;;;;;;5014615;28;20480;-72
2022/12/23 16:09:54;;;;;;;1.80;0.90;;;13.30;95.80;;;;;;5014287;28;20444;-73
2022/12/23 16:12:25;;;;;;;1.60;0.70;;;13.40;95.80;;;;;;5015335;28;20475;-73
2022/12/23 16:14:54;;;;;;;1.50;0.70;;;13.40;95.80;;;;;;5015869;28;20432;-74
2022/12/23 16:17:30;;;;;;;2.20;0.80;;;13.50;95.40;;;;;;5019754;28;20448;-74
2022/12/23 16:20:19;;;;;;;1.70;0.87;;;13.40;95.10;;;;;;5017534;28;20445;-74
2022/12/23 16:22:49;;;;;;;1.60;0.70;;;13.40;95.40;;;;;;5019178;28;20528;-74
2022/12/23 16:25:18;;;;;;;2.20;0.93;;;13.40;95.10;;;;;;5019620;28;20433;-73
2022/12/23 16:27:49;;;;;;;1.70;0.90;;;13.40;94.90;;;;;;5022759;28;20535;-74
2022/12/23 16:30:19;;;;;;;1.50;0.70;;;13.50;95.10;;;;;;5019764;28;20417;-74
2022/12/23 16:32:51;;;;;;;1.63;0.80;;;13.60;94.60;;;;;;5022597;28;20476;-72
2022/12/23 16:35:31;;;;;;;2.37;0.90;;;13.60;94.40;;;;;;5024704;28;20455;-74
2022/12/23 16:38:09;;;;;;;2.20;0.93;;;13.50;94.80;;;;;;5025073;28;20433;-74
2022/12/23 16:40:36;;;;;;;1.90;0.90;;;13.40;95.20;;;;;;5025534;28;20528;-74
2022/12/23 16:43:04;;;;;;;2.30;1.00;;;13.40;95.30;;;;;;5021273;28;20472;-72
2022/12/23 16:45:35;;;;;;;2.10;1.33;;;13.50;95.00;;;;;;5017271;28;20452;-73
2022/12/23 16:48:07;;;;;;;1.60;0.80;;;13.40;94.80;;;;;;5018222;28;20475;-73
2022/12/23 16:50:34;;;;;;;1.60;0.80;;;13.40;95.20;;;;;;5020475;28;20461;-73
2022/12/23 16:53:01;;;;;;;1.70;0.90;;;13.40;95.00;;;;;;5021850;28;21024;-73
2022/12/23 16:55:27;;;;;;;1.73;0.80;;;13.40;94.90;;;;;;5021548;28;20882;-73
2022/12/23 16:57:54;;;;;;;2.20;1.03;;;13.40;95.10;;;;;;5020611;28;20494;-73
2022/12/23 17:00:22;;;;;;;1.60;0.80;;;13.40;95.00;;;;;;5021330;28;20449;-73
2022/12/23 17:02:49;;;;;;;1.90;0.80;;;13.40;95.00;;;;;;5018718;28;20464;-73
2022/12/23 17:05:18;;;;;;;2.17;1.10;;;13.40;95.20;;;;;;5022089;28;20455;-72
2022/12/23 17:07:45;;;;;;;1.90;0.97;;;13.40;95.30;;;;;;5023263;28;20480;-72